Terminal Aerodrome Forecast
Issued by NWS

Home | Current Version | Previous Version | Text Only | Print | Product List | Glossary On
Versions: 1 2 3 4 5 6 7 8 9 10 11 12 13 14 15 16 17
000
FTUS43 KGRB 180520
TAFMTW
TAF
KMTW 180520Z 1806/1906 36005KT P6SM BKN040
     FM181000 36006KT P6SM BKN035
     FM181200 03007KT P6SM BKN020
     FM181400 04010KT P6SM OVC014
     FM181900 04013KT P6SM -SN OVC010
     FM182100 03012G18KT 3SM -SN OVC014=

USA.gov is the U.S. government's official web portal to all federal, state and local government web resources and services.